Strona główna
METAR-TAF:

METAR-TAF

Lotnisko :

Port lotniczy Żylina

Żylina, Słowacja

Szerokość geograficzna: 49-14N, Długość geograficzna: 018-36-49E, wysokość: 312 m

Aktualna obserwacja pogody

Raport powstał 25 minut temu, godzina 01:30 UTC
Wiatr 3 kt od wschód
Temperatura 16°C
Wilgotność 88%
Ciśnienie 1021 hPa
Widzialność 10 km lub więcej
Brak chmur poniżej 1500 m i brak chmur cumulonimbus

METAR: LZZI 190130Z 10003KT CAVOK 16/14 Q1021

czas: 03:55 (01:55 UTC)

Prognoza

Raport powstał 2 godziny i 55 minut temu, godzina 23:00 UTC
Prognoza ważna od 19 godzina 00 UTC do 19 godzina 09 UTC
Wiatr 2 kt z kierunków zmiennych
Widzialność 10 km lub więcej
Brak chmur poniżej 1500 m i brak chmur cumulonimbus
Przejściowo
od 19 godzina 02 UTC do 19 godzina 05 UTC
Widzialność 10 km lub więcej
Płytka mgła
Stopniowe zmiany
od 19 godzina 07 UTC do 19 godzina 09 UTC
Wiatr 5 kt od wschodnio-północny wschód

TAF: LZZI 182300Z 1900/1909 VRB02KT CAVOK TEMPO 1902/1905 9999 MIFG NSC BECMG 1907/1909 07005KT

Obserwacja i prognoza pogody dla ponad 4000 lotnisk (raport METAR i TAF).

Dostępne stacje oznaczono żółtymi i czerwonymi punktami na mapie.

Najedź kursorem aby zobaczyć nazwę stacji.

Kliknij aby zobaczyć obserwacje i prognozy pogody.

Aby zmienić mapę: kliknij na zielony przycisk z czarnym krzyżykiem, aby powiększyć; na zielony przycisk z myślnikiem, aby pomniejszyć; na zielone strzałki, aby przejść do map sąsiednich.


METAR-TAF: